sensor_id;sensor_type;location;lat;lon;timestamp;temperature;humidity
78541;SHT31;67835;51.968;5.646;2023-04-24T00:02:15;12.0;73.9
78541;SHT31;67835;51.968;5.646;2023-04-24T00:04:45;12.0;73.7
78541;SHT31;67835;51.968;5.646;2023-04-24T00:07:16;12.1;73.4
78541;SHT31;67835;51.968;5.646;2023-04-24T00:09:47;12.1;73.4
78541;SHT31;67835;51.968;5.646;2023-04-24T00:12:18;12.1;73.4
78541;SHT31;67835;51.968;5.646;2023-04-24T00:14:48;12.1;73.3
78541;SHT31;67835;51.968;5.646;2023-04-24T00:17:17;12.1;73.3
78541;SHT31;67835;51.968;5.646;2023-04-24T00:19:49;12.1;73.0
78541;SHT31;67835;51.968;5.646;2023-04-24T00:22:25;12.2;72.7
78541;SHT31;67835;51.968;5.646;2023-04-24T00:24:54;12.2;72.8
78541;SHT31;67835;51.968;5.646;2023-04-24T00:27:24;12.2;73.1
78541;SHT31;67835;51.968;5.646;2023-04-24T00:29:54;12.2;72.7
78541;SHT31;67835;51.968;5.646;2023-04-24T00:32:24;12.2;72.8
78541;SHT31;67835;51.968;5.646;2023-04-24T00:34:53;12.2;71.9
78541;SHT31;67835;51.968;5.646;2023-04-24T00:37:23;12.2;72.1
78541;SHT31;67835;51.968;5.646;2023-04-24T00:39:52;12.2;72.3
78541;SHT31;67835;51.968;5.646;2023-04-24T00:42:23;12.3;72.7
78541;SHT31;67835;51.968;5.646;2023-04-24T00:44:53;12.2;73.0
78541;SHT31;67835;51.968;5.646;2023-04-24T00:47:23;12.2;73.4
78541;SHT31;67835;51.968;5.646;2023-04-24T00:49:54;12.2;73.6
78541;SHT31;67835;51.968;5.646;2023-04-24T00:52:25;12.2;74.2
78541;SHT31;67835;51.968;5.646;2023-04-24T00:54:55;12.2;74.7
78541;SHT31;67835;51.968;5.646;2023-04-24T00:57:26;12.2;75.3
78541;SHT31;67835;51.968;5.646;2023-04-24T00:59:55;12.2;75.2
78541;SHT31;67835;51.968;5.646;2023-04-24T01:02:26;12.1;74.7
78541;SHT31;67835;51.968;5.646;2023-04-24T01:04:57;12.1;73.9
78541;SHT31;67835;51.968;5.646;2023-04-24T01:07:29;12.1;71.7
78541;SHT31;67835;51.968;5.646;2023-04-24T01:09:59;12.0;72.4
78541;SHT31;67835;51.968;5.646;2023-04-24T01:12:29;12.0;73.4
78541;SHT31;67835;51.968;5.646;2023-04-24T01:14:59;11.9;73.9
78541;SHT31;67835;51.968;5.646;2023-04-24T01:17:31;11.9;74.2
78541;SHT31;67835;51.968;5.646;2023-04-24T01:20:02;11.8;74.2
78541;SHT31;67835;51.968;5.646;2023-04-24T01:22:34;11.8;74.5
78541;SHT31;67835;51.968;5.646;2023-04-24T01:25:04;11.8;74.6
78541;SHT31;67835;51.968;5.646;2023-04-24T01:27:34;11.7;74.8
78541;SHT31;67835;51.968;5.646;2023-04-24T01:30:05;11.7;74.9
78541;SHT31;67835;51.968;5.646;2023-04-24T01:35:10;11.7;75.8
78541;SHT31;67835;51.968;5.646;2023-04-24T01:37:39;11.7;76.0
78541;SHT31;67835;51.968;5.646;2023-04-24T01:40:10;11.7;76.1
78541;SHT31;67835;51.968;5.646;2023-04-24T01:42:41;11.7;76.2
78541;SHT31;67835;51.968;5.646;2023-04-24T01:45:12;11.7;75.9
78541;SHT31;67835;51.968;5.646;2023-04-24T01:47:42;11.7;76.1
78541;SHT31;67835;51.968;5.646;2023-04-24T01:50:14;11.7;76.4
78541;SHT31;67835;51.968;5.646;2023-04-24T01:52:44;11.7;76.5
78541;SHT31;67835;51.968;5.646;2023-04-24T01:55:14;11.8;76.2
78541;SHT31;67835;51.968;5.646;2023-04-24T01:57:43;11.8;76.5
78541;SHT31;67835;51.968;5.646;2023-04-24T02:00:14;11.8;76.5
78541;SHT31;67835;51.968;5.646;2023-04-24T02:02:44;11.9;76.4
78541;SHT31;67835;51.968;5.646;2023-04-24T02:05:16;11.9;76.2
78541;SHT31;67835;51.968;5.646;2023-04-24T02:07:46;11.9;76.2
78541;SHT31;67835;51.968;5.646;2023-04-24T02:10:16;12.0;76.1
78541;SHT31;67835;51.968;5.646;2023-04-24T02:12:45;12.0;75.7
78541;SHT31;67835;51.968;5.646;2023-04-24T02:15:16;12.0;75.9
78541;SHT31;67835;51.968;5.646;2023-04-24T02:17:46;12.1;75.7
78541;SHT31;67835;51.968;5.646;2023-04-24T02:20:15;12.1;75.9
78541;SHT31;67835;51.968;5.646;2023-04-24T02:22:45;12.1;75.8
78541;SHT31;67835;51.968;5.646;2023-04-24T02:25:16;12.1;75.7
78541;SHT31;67835;51.968;5.646;2023-04-24T02:27:46;12.1;75.9
78541;SHT31;67835;51.968;5.646;2023-04-24T02:30:16;12.1;76.2
78541;SHT31;67835;51.968;5.646;2023-04-24T02:32:45;12.1;76.1
78541;SHT31;67835;51.968;5.646;2023-04-24T02:35:17;12.1;76.1
78541;SHT31;67835;51.968;5.646;2023-04-24T02:37:46;12.1;76.3
78541;SHT31;67835;51.968;5.646;2023-04-24T02:40:16;12.1;75.3
78541;SHT31;67835;51.968;5.646;2023-04-24T02:42:46;12.1;75.1
78541;SHT31;67835;51.968;5.646;2023-04-24T02:45:18;12.1;75.2
78541;SHT31;67835;51.968;5.646;2023-04-24T02:47:47;12.1;75.2
78541;SHT31;67835;51.968;5.646;2023-04-24T02:50:16;12.0;75.4
78541;SHT31;67835;51.968;5.646;2023-04-24T02:52:46;12.0;74.5
78541;SHT31;67835;51.968;5.646;2023-04-24T02:55:16;12.0;74.9
78541;SHT31;67835;51.968;5.646;2023-04-24T02:57:46;12.0;74.7
78541;SHT31;67835;51.968;5.646;2023-04-24T03:00:16;11.9;74.4
78541;SHT31;67835;51.968;5.646;2023-04-24T03:02:46;11.9;74.8
78541;SHT31;67835;51.968;5.646;2023-04-24T03:05:17;11.9;75.2
78541;SHT31;67835;51.968;5.646;2023-04-24T03:07:46;11.9;75.3
78541;SHT31;67835;51.968;5.646;2023-04-24T03:10:18;11.9;75.6
78541;SHT31;67835;51.968;5.646;2023-04-24T03:12:50;11.9;75.9
78541;SHT31;67835;51.968;5.646;2023-04-24T03:15:21;11.9;76.2
78541;SHT31;67835;51.968;5.646;2023-04-24T03:17:51;11.9;76.5
78541;SHT31;67835;51.968;5.646;2023-04-24T03:20:21;11.9;76.6
78541;SHT31;67835;51.968;5.646;2023-04-24T03:22:53;11.9;76.4
78541;SHT31;67835;51.968;5.646;2023-04-24T03:25:23;11.9;76.2
78541;SHT31;67835;51.968;5.646;2023-04-24T03:27:53;11.8;75.8
78541;SHT31;67835;51.968;5.646;2023-04-24T03:30:22;11.8;75.6
78541;SHT31;67835;51.968;5.646;2023-04-24T03:32:52;11.8;75.4
78541;SHT31;67835;51.968;5.646;2023-04-24T03:35:22;11.8;75.7
78541;SHT31;67835;51.968;5.646;2023-04-24T03:37:52;11.8;75.7
78541;SHT31;67835;51.968;5.646;2023-04-24T03:40:23;11.8;76.1
78541;SHT31;67835;51.968;5.646;2023-04-24T03:42:52;11.7;76.3
78541;SHT31;67835;51.968;5.646;2023-04-24T03:45:22;11.7;76.3
78541;SHT31;67835;51.968;5.646;2023-04-24T03:47:52;11.7;76.4
78541;SHT31;67835;51.968;5.646;2023-04-24T03:50:22;11.7;76.3
78541;SHT31;67835;51.968;5.646;2023-04-24T03:52:54;11.8;76.4
78541;SHT31;67835;51.968;5.646;2023-04-24T03:55:25;11.9;75.7
78541;SHT31;67835;51.968;5.646;2023-04-24T03:57:55;12.1;75.2
78541;SHT31;67835;51.968;5.646;2023-04-24T04:00:24;12.2;74.1
78541;SHT31;67835;51.968;5.646;2023-04-24T04:03:10;12.3;73.2
78541;SHT31;67835;51.968;5.646;2023-04-24T04:05:59;12.4;72.1
78541;SHT31;67835;51.968;5.646;2023-04-24T04:08:28;12.5;71.7
78541;SHT31;67835;51.968;5.646;2023-04-24T04:11:05;12.6;71.1
78541;SHT31;67835;51.968;5.646;2023-04-24T04:13:34;12.7;70.4
78541;SHT31;67835;51.968;5.646;2023-04-24T04:16:04;12.6;69.8
78541;SHT31;67835;51.968;5.646;2023-04-24T04:18:35;12.6;70.1
78541;SHT31;67835;51.968;5.646;2023-04-24T04:21:05;12.4;70.4
78541;SHT31;67835;51.968;5.646;2023-04-24T04:23:35;12.4;70.7
78541;SHT31;67835;51.968;5.646;2023-04-24T04:26:06;12.2;71.6
78541;SHT31;67835;51.968;5.646;2023-04-24T04:28:35;12.2;72.5
78541;SHT31;67835;51.968;5.646;2023-04-24T04:31:12;12.2;71.7
78541;SHT31;67835;51.968;5.646;2023-04-24T04:33:41;12.1;71.9
78541;SHT31;67835;51.968;5.646;2023-04-24T04:36:11;12.1;72.2
78541;SHT31;67835;51.968;5.646;2023-04-24T04:38:41;12.0;72.4
78541;SHT31;67835;51.968;5.646;2023-04-24T04:41:12;11.9;73.3
78541;SHT31;67835;51.968;5.646;2023-04-24T04:43:45;11.8;74.0
78541;SHT31;67835;51.968;5.646;2023-04-24T04:46:17;11.8;74.2
78541;SHT31;67835;51.968;5.646;2023-04-24T04:48:48;11.7;74.6
78541;SHT31;67835;51.968;5.646;2023-04-24T04:51:18;11.6;74.7
78541;SHT31;67835;51.968;5.646;2023-04-24T04:53:48;11.6;75.0
78541;SHT31;67835;51.968;5.646;2023-04-24T04:56:18;11.6;75.0
78541;SHT31;67835;51.968;5.646;2023-04-24T04:58:48;11.5;74.7
78541;SHT31;67835;51.968;5.646;2023-04-24T05:01:19;11.5;74.8
78541;SHT31;67835;51.968;5.646;2023-04-24T05:03:50;11.5;75.0
78541;SHT31;67835;51.968;5.646;2023-04-24T05:06:21;11.6;75.8
78541;SHT31;67835;51.968;5.646;2023-04-24T05:08:51;11.7;74.8
78541;SHT31;67835;51.968;5.646;2023-04-24T05:11:27;11.7;74.3
78541;SHT31;67835;51.968;5.646;2023-04-24T05:13:57;11.7;74.1
78541;SHT31;67835;51.968;5.646;2023-04-24T05:16:27;11.8;74.4
78541;SHT31;67835;51.968;5.646;2023-04-24T05:18:58;11.8;74.4
78541;SHT31;67835;51.968;5.646;2023-04-24T05:21:28;11.8;73.9
78541;SHT31;67835;51.968;5.646;2023-04-24T05:23:58;11.8;74.2
78541;SHT31;67835;51.968;5.646;2023-04-24T05:26:29;11.8;74.0
78541;SHT31;67835;51.968;5.646;2023-04-24T05:28:59;11.9;74.4
78541;SHT31;67835;51.968;5.646;2023-04-24T05:31:28;11.9;74.6
78541;SHT31;67835;51.968;5.646;2023-04-24T05:33:58;11.9;74.7
78541;SHT31;67835;51.968;5.646;2023-04-24T05:36:30;11.9;74.5
78541;SHT31;67835;51.968;5.646;2023-04-24T05:39:00;12.0;74.6
78541;SHT31;67835;51.968;5.646;2023-04-24T05:41:32;12.0;74.5
78541;SHT31;67835;51.968;5.646;2023-04-24T05:44:02;12.0;75.1
78541;SHT31;67835;51.968;5.646;2023-04-24T05:46:32;12.0;75.0
78541;SHT31;67835;51.968;5.646;2023-04-24T05:49:03;12.1;74.7
78541;SHT31;67835;51.968;5.646;2023-04-24T05:51:33;12.1;74.2
78541;SHT31;67835;51.968;5.646;2023-04-24T05:54:14;12.2;74.3
78541;SHT31;67835;51.968;5.646;2023-04-24T05:56:44;12.3;73.4
78541;SHT31;67835;51.968;5.646;2023-04-24T05:59:14;12.3;73.9
78541;SHT31;67835;51.968;5.646;2023-04-24T06:01:44;12.3;74.0
78541;SHT31;67835;51.968;5.646;2023-04-24T06:04:16;12.3;73.5
78541;SHT31;67835;51.968;5.646;2023-04-24T06:06:47;12.4;73.1
78541;SHT31;67835;51.968;5.646;2023-04-24T06:09:18;12.4;73.2
78541;SHT31;67835;51.968;5.646;2023-04-24T06:11:49;12.4;73.5
78541;SHT31;67835;51.968;5.646;2023-04-24T06:14:20;12.4;74.2
78541;SHT31;67835;51.968;5.646;2023-04-24T06:16:51;12.4;74.5
78541;SHT31;67835;51.968;5.646;2023-04-24T06:19:21;12.4;74.4
78541;SHT31;67835;51.968;5.646;2023-04-24T06:21:51;12.5;75.2
78541;SHT31;67835;51.968;5.646;2023-04-24T06:24:20;12.7;74.5
78541;SHT31;67835;51.968;5.646;2023-04-24T06:26:50;12.8;73.8
78541;SHT31;67835;51.968;5.646;2023-04-24T06:29:20;12.8;73.4
78541;SHT31;67835;51.968;5.646;2023-04-24T06:31:53;12.8;72.6
78541;SHT31;67835;51.968;5.646;2023-04-24T06:34:23;12.9;72.2
78541;SHT31;67835;51.968;5.646;2023-04-24T06:36:54;12.9;71.8
78541;SHT31;67835;51.968;5.646;2023-04-24T06:39:26;12.9;70.9
78541;SHT31;67835;51.968;5.646;2023-04-24T06:41:55;12.9;71.4
78541;SHT31;67835;51.968;5.646;2023-04-24T06:44:25;12.9;71.5
78541;SHT31;67835;51.968;5.646;2023-04-24T06:47:03;12.9;71.5
78541;SHT31;67835;51.968;5.646;2023-04-24T06:49:33;12.9;71.6
78541;SHT31;67835;51.968;5.646;2023-04-24T06:52:09;12.9;71.2
78541;SHT31;67835;51.968;5.646;2023-04-24T06:54:48;12.9;70.8
78541;SHT31;67835;51.968;5.646;2023-04-24T06:57:18;13.0;69.7
78541;SHT31;67835;51.968;5.646;2023-04-24T06:59:50;12.9;69.2
78541;SHT31;67835;51.968;5.646;2023-04-24T07:02:20;12.9;69.7
78541;SHT31;67835;51.968;5.646;2023-04-24T07:04:52;12.9;69.7
78541;SHT31;67835;51.968;5.646;2023-04-24T07:07:23;12.8;70.5
78541;SHT31;67835;51.968;5.646;2023-04-24T07:09:57;12.8;70.4
78541;SHT31;67835;51.968;5.646;2023-04-24T07:12:26;12.7;70.5
78541;SHT31;67835;51.968;5.646;2023-04-24T07:14:56;12.7;69.9
78541;SHT31;67835;51.968;5.646;2023-04-24T07:17:26;12.7;69.8
78541;SHT31;67835;51.968;5.646;2023-04-24T07:19:56;12.6;69.6
78541;SHT31;67835;51.968;5.646;2023-04-24T07:22:26;12.6;70.4
78541;SHT31;67835;51.968;5.646;2023-04-24T07:24:56;12.6;70.1
78541;SHT31;67835;51.968;5.646;2023-04-24T07:27:26;12.5;70.4
78541;SHT31;67835;51.968;5.646;2023-04-24T07:29:55;12.5;70.7
78541;SHT31;67835;51.968;5.646;2023-04-24T07:32:25;12.5;71.1
78541;SHT31;67835;51.968;5.646;2023-04-24T07:34:57;12.5;70.1
78541;SHT31;67835;51.968;5.646;2023-04-24T07:37:28;12.5;70.0
78541;SHT31;67835;51.968;5.646;2023-04-24T07:41:14;12.5;69.8
78541;SHT31;67835;51.968;5.646;2023-04-24T07:43:44;12.4;69.4
78541;SHT31;67835;51.968;5.646;2023-04-24T07:46:17;12.4;69.5
78541;SHT31;67835;51.968;5.646;2023-04-24T07:49:54;12.3;69.2
78541;SHT31;67835;51.968;5.646;2023-04-24T07:52:24;12.3;69.5
78541;SHT31;67835;51.968;5.646;2023-04-24T07:54:57;12.3;69.8
78541;SHT31;67835;51.968;5.646;2023-04-24T07:57:34;12.2;70.2
78541;SHT31;67835;51.968;5.646;2023-04-24T08:00:09;12.2;70.7
78541;SHT31;67835;51.968;5.646;2023-04-24T08:02:41;12.2;70.1
78541;SHT31;67835;51.968;5.646;2023-04-24T08:06:15;12.2;70.5
78541;SHT31;67835;51.968;5.646;2023-04-24T08:08:50;12.2;70.1
78541;SHT31;67835;51.968;5.646;2023-04-24T08:11:21;12.2;70.1
78541;SHT31;67835;51.968;5.646;2023-04-24T08:14:05;12.2;70.2
78541;SHT31;67835;51.968;5.646;2023-04-24T08:16:39;12.2;69.7
78541;SHT31;67835;51.968;5.646;2023-04-24T08:19:09;12.2;69.5
78541;SHT31;67835;51.968;5.646;2023-04-24T08:21:41;12.2;69.1
78541;SHT31;67835;51.968;5.646;2023-04-24T08:24:11;12.2;69.7
78541;SHT31;67835;51.968;5.646;2023-04-24T08:26:42;12.2;69.2
78541;SHT31;67835;51.968;5.646;2023-04-24T08:29:14;12.3;70.0
78541;SHT31;67835;51.968;5.646;2023-04-24T08:31:45;12.3;69.9
78541;SHT31;67835;51.968;5.646;2023-04-24T08:34:27;12.3;69.0
78541;SHT31;67835;51.968;5.646;2023-04-24T08:37:01;12.4;69.6
78541;SHT31;67835;51.968;5.646;2023-04-24T08:39:36;12.4;69.1
78541;SHT31;67835;51.968;5.646;2023-04-24T08:42:16;12.4;69.7
78541;SHT31;67835;51.968;5.646;2023-04-24T08:44:50;12.4;69.6
78541;SHT31;67835;51.968;5.646;2023-04-24T08:47:33;12.5;68.6
78541;SHT31;67835;51.968;5.646;2023-04-24T08:52:16;12.5;68.8
78541;SHT31;67835;51.968;5.646;2023-04-24T08:55:21;12.6;67.8
78541;SHT31;67835;51.968;5.646;2023-04-24T08:59:24;12.8;68.1
78541;SHT31;67835;51.968;5.646;2023-04-24T09:02:24;13.0;65.7
78541;SHT31;67835;51.968;5.646;2023-04-24T09:05:14;13.2;65.3
78541;SHT31;67835;51.968;5.646;2023-04-24T09:08:29;13.3;65.0
78541;SHT31;67835;51.968;5.646;2023-04-24T09:11:05;13.4;63.1
78541;SHT31;67835;51.968;5.646;2023-04-24T09:14:04;13.5;62.5
78541;SHT31;67835;51.968;5.646;2023-04-24T09:16:46;13.6;61.9
78541;SHT31;67835;51.968;5.646;2023-04-24T09:19:16;13.6;61.4
78541;SHT31;67835;51.968;5.646;2023-04-24T09:21:48;13.6;60.7
78541;SHT31;67835;51.968;5.646;2023-04-24T09:24:21;13.6;60.6
78541;SHT31;67835;51.968;5.646;2023-04-24T09:26:58;13.6;60.1
78541;SHT31;67835;51.968;5.646;2023-04-24T09:29:29;13.7;59.4
78541;SHT31;67835;51.968;5.646;2023-04-24T09:32:21;13.7;59.7
78541;SHT31;67835;51.968;5.646;2023-04-24T09:35:09;13.7;61.3
78541;SHT31;67835;51.968;5.646;2023-04-24T09:37:48;13.7;60.7
78541;SHT31;67835;51.968;5.646;2023-04-24T09:40:30;13.8;59.8
78541;SHT31;67835;51.968;5.646;2023-04-24T09:43:11;13.9;58.8
78541;SHT31;67835;51.968;5.646;2023-04-24T09:45:57;13.9;58.6
78541;SHT31;67835;51.968;5.646;2023-04-24T09:48:34;14.0;58.9
78541;SHT31;67835;51.968;5.646;2023-04-24T09:51:08;14.0;56.5
78541;SHT31;67835;51.968;5.646;2023-04-24T09:53:45;14.1;58.0
78541;SHT31;67835;51.968;5.646;2023-04-24T09:56:20;14.1;58.3
78541;SHT31;67835;51.968;5.646;2023-04-24T09:58:54;14.1;58.4
78541;SHT31;67835;51.968;5.646;2023-04-24T10:02:35;14.3;57.7
78541;SHT31;67835;51.968;5.646;2023-04-24T10:05:08;14.4;59.3
78541;SHT31;67835;51.968;5.646;2023-04-24T10:07:41;14.6;56.0
78541;SHT31;67835;51.968;5.646;2023-04-24T10:10:15;14.7;55.6
78541;SHT31;67835;51.968;5.646;2023-04-24T10:13:01;14.8;56.1
78541;SHT31;67835;51.968;5.646;2023-04-24T10:15:34;15.0;54.5
78541;SHT31;67835;51.968;5.646;2023-04-24T10:18:05;15.2;53.0
78541;SHT31;67835;51.968;5.646;2023-04-24T10:21:02;15.3;51.4
78541;SHT31;67835;51.968;5.646;2023-04-24T10:23:33;15.4;50.2
78541;SHT31;67835;51.968;5.646;2023-04-24T10:26:10;15.4;49.2
78541;SHT31;67835;51.968;5.646;2023-04-24T10:28:49;15.5;48.6
78541;SHT31;67835;51.968;5.646;2023-04-24T10:31:25;15.5;48.9
78541;SHT31;67835;51.968;5.646;2023-04-24T10:35:24;15.6;48.5
78541;SHT31;67835;51.968;5.646;2023-04-24T10:38:46;15.7;48.5
78541;SHT31;67835;51.968;5.646;2023-04-24T10:41:26;15.9;48.4
78541;SHT31;67835;51.968;5.646;2023-04-24T10:44:12;16.0;47.4
78541;SHT31;67835;51.968;5.646;2023-04-24T10:46:54;16.1;47.1
78541;SHT31;67835;51.968;5.646;2023-04-24T10:49:33;16.1;47.0
78541;SHT31;67835;51.968;5.646;2023-04-24T10:52:21;16.0;47.7
78541;SHT31;67835;51.968;5.646;2023-04-24T10:55:04;15.9;48.0
78541;SHT31;67835;51.968;5.646;2023-04-24T10:57:37;15.7;47.8
78541;SHT31;67835;51.968;5.646;2023-04-24T11:02:17;15.6;48.1
78541;SHT31;67835;51.968;5.646;2023-04-24T11:08:16;15.5;50.7
78541;SHT31;67835;51.968;5.646;2023-04-24T11:10:57;15.4;49.7
78541;SHT31;67835;51.968;5.646;2023-04-24T11:14:04;15.4;49.6
78541;SHT31;67835;51.968;5.646;2023-04-24T11:18:42;15.4;49.9
78541;SHT31;67835;51.968;5.646;2023-04-24T11:21:22;15.3;49.6
78541;SHT31;67835;51.968;5.646;2023-04-24T11:24:28;15.2;50.3
78541;SHT31;67835;51.968;5.646;2023-04-24T11:27:07;15.2;51.7
78541;SHT31;67835;51.968;5.646;2023-04-24T11:29:45;15.2;51.5
78541;SHT31;67835;51.968;5.646;2023-04-24T11:32:33;15.2;51.4
78541;SHT31;67835;51.968;5.646;2023-04-24T11:35:14;15.4;52.1
78541;SHT31;67835;51.968;5.646;2023-04-24T11:37:55;15.7;50.3
78541;SHT31;67835;51.968;5.646;2023-04-24T11:40:40;15.9;49.7
78541;SHT31;67835;51.968;5.646;2023-04-24T11:43:43;16.1;49.0
78541;SHT31;67835;51.968;5.646;2023-04-24T11:46:17;16.1;47.8
78541;SHT31;67835;51.968;5.646;2023-04-24T11:48:50;16.1;48.5
78541;SHT31;67835;51.968;5.646;2023-04-24T11:51:27;16.1;48.0
78541;SHT31;67835;51.968;5.646;2023-04-24T11:53:59;16.0;48.0
78541;SHT31;67835;51.968;5.646;2023-04-24T11:56:58;15.9;49.3
78541;SHT31;67835;51.968;5.646;2023-04-24T11:59:49;15.9;49.3
78541;SHT31;67835;51.968;5.646;2023-04-24T12:02:25;15.8;50.9
78541;SHT31;67835;51.968;5.646;2023-04-24T12:04:57;15.6;50.7
78541;SHT31;67835;51.968;5.646;2023-04-24T12:07:28;15.5;51.8
78541;SHT31;67835;51.968;5.646;2023-04-24T12:10:05;15.4;51.7
78541;SHT31;67835;51.968;5.646;2023-04-24T12:12:40;15.3;52.8
78541;SHT31;67835;51.968;5.646;2023-04-24T12:15:20;15.2;53.2
78541;SHT31;67835;51.968;5.646;2023-04-24T12:18:04;15.2;52.7
78541;SHT31;67835;51.968;5.646;2023-04-24T12:20:35;15.2;51.5
78541;SHT31;67835;51.968;5.646;2023-04-24T12:23:07;15.2;49.9
78541;SHT31;67835;51.968;5.646;2023-04-24T12:25:43;15.2;49.2
78541;SHT31;67835;51.968;5.646;2023-04-24T12:28:37;15.2;50.2
78541;SHT31;67835;51.968;5.646;2023-04-24T12:31:08;15.2;49.5
78541;SHT31;67835;51.968;5.646;2023-04-24T12:33:39;15.1;49.4
78541;SHT31;67835;51.968;5.646;2023-04-24T12:36:12;15.1;49.7
78541;SHT31;67835;51.968;5.646;2023-04-24T12:38:46;15.0;50.4
78541;SHT31;67835;51.968;5.646;2023-04-24T12:41:17;15.0;50.7
78541;SHT31;67835;51.968;5.646;2023-04-24T12:43:54;15.0;50.9
78541;SHT31;67835;51.968;5.646;2023-04-24T12:46:33;14.9;50.4
78541;SHT31;67835;51.968;5.646;2023-04-24T12:58:04;14.9;51.1
78541;SHT31;67835;51.968;5.646;2023-04-24T13:00:42;14.9;50.8
78541;SHT31;67835;51.968;5.646;2023-04-24T13:03:18;14.9;51.0
78541;SHT31;67835;51.968;5.646;2023-04-24T13:06:10;14.9;49.8
78541;SHT31;67835;51.968;5.646;2023-04-24T13:08:43;14.9;50.2
78541;SHT31;67835;51.968;5.646;2023-04-24T13:11:16;15.0;48.9
78541;SHT31;67835;51.968;5.646;2023-04-24T13:13:51;15.0;49.0
78541;SHT31;67835;51.968;5.646;2023-04-24T13:18:24;15.0;48.8
78541;SHT31;67835;51.968;5.646;2023-04-24T13:23:09;15.0;48.6
78541;SHT31;67835;51.968;5.646;2023-04-24T13:25:39;15.0;49.3
78541;SHT31;67835;51.968;5.646;2023-04-24T13:28:50;15.0;49.6
78541;SHT31;67835;51.968;5.646;2023-04-24T13:31:20;15.1;49.1
78541;SHT31;67835;51.968;5.646;2023-04-24T13:33:49;15.1;49.8
78541;SHT31;67835;51.968;5.646;2023-04-24T13:36:19;15.2;48.8
78541;SHT31;67835;51.968;5.646;2023-04-24T13:38:48;15.2;50.7
78541;SHT31;67835;51.968;5.646;2023-04-24T13:41:18;15.3;49.5
78541;SHT31;67835;51.968;5.646;2023-04-24T13:43:47;15.5;49.5
78541;SHT31;67835;51.968;5.646;2023-04-24T13:46:17;15.7;46.1
78541;SHT31;67835;51.968;5.646;2023-04-24T13:48:47;16.0;45.7
78541;SHT31;67835;51.968;5.646;2023-04-24T13:51:17;16.2;45.1
78541;SHT31;67835;51.968;5.646;2023-04-24T13:53:46;16.4;44.2
78541;SHT31;67835;51.968;5.646;2023-04-24T13:56:18;16.6;45.4
78541;SHT31;67835;51.968;5.646;2023-04-24T13:58:48;16.8;43.0
78541;SHT31;67835;51.968;5.646;2023-04-24T14:01:18;16.9;41.3
78541;SHT31;67835;51.968;5.646;2023-04-24T14:03:48;17.0;42.3
78541;SHT31;67835;51.968;5.646;2023-04-24T14:06:19;17.0;43.1
78541;SHT31;67835;51.968;5.646;2023-04-24T14:08:49;16.9;43.9
78541;SHT31;67835;51.968;5.646;2023-04-24T14:11:19;16.9;43.4
78541;SHT31;67835;51.968;5.646;2023-04-24T14:13:50;16.9;43.4
78541;SHT31;67835;51.968;5.646;2023-04-24T14:16:19;16.9;42.6
78541;SHT31;67835;51.968;5.646;2023-04-24T14:18:49;17.0;41.8
78541;SHT31;67835;51.968;5.646;2023-04-24T14:21:18;17.0;40.6
78541;SHT31;67835;51.968;5.646;2023-04-24T14:23:47;17.1;40.3
78541;SHT31;67835;51.968;5.646;2023-04-24T14:26:19;17.1;40.7
78541;SHT31;67835;51.968;5.646;2023-04-24T14:28:49;17.1;40.4
78541;SHT31;67835;51.968;5.646;2023-04-24T14:31:20;17.2;40.3
78541;SHT31;67835;51.968;5.646;2023-04-24T14:33:51;17.2;41.3
78541;SHT31;67835;51.968;5.646;2023-04-24T14:36:23;17.2;40.6
78541;SHT31;67835;51.968;5.646;2023-04-24T14:38:53;17.2;40.8
78541;SHT31;67835;51.968;5.646;2023-04-24T14:41:23;17.2;40.1
78541;SHT31;67835;51.968;5.646;2023-04-24T14:43:52;17.1;38.8
78541;SHT31;67835;51.968;5.646;2023-04-24T14:46:22;17.1;40.2
78541;SHT31;67835;51.968;5.646;2023-04-24T14:48:51;17.1;40.4
78541;SHT31;67835;51.968;5.646;2023-04-24T14:51:21;17.0;40.3
78541;SHT31;67835;51.968;5.646;2023-04-24T14:53:50;17.0;40.0
78541;SHT31;67835;51.968;5.646;2023-04-24T14:56:22;16.9;40.5
78541;SHT31;67835;51.968;5.646;2023-04-24T14:58:52;16.8;41.5
78541;SHT31;67835;51.968;5.646;2023-04-24T15:01:23;16.8;42.4
78541;SHT31;67835;51.968;5.646;2023-04-24T15:03:53;16.8;43.5
78541;SHT31;67835;51.968;5.646;2023-04-24T15:06:22;16.8;43.3
78541;SHT31;67835;51.968;5.646;2023-04-24T15:08:52;16.8;43.0
78541;SHT31;67835;51.968;5.646;2023-04-24T15:11:25;16.8;42.1
78541;SHT31;67835;51.968;5.646;2023-04-24T15:13:56;16.8;41.9
78541;SHT31;67835;51.968;5.646;2023-04-24T15:16:26;16.8;41.7
78541;SHT31;67835;51.968;5.646;2023-04-24T15:18:55;16.7;41.4
78541;SHT31;67835;51.968;5.646;2023-04-24T15:21:25;16.6;42.3
78541;SHT31;67835;51.968;5.646;2023-04-24T15:23:54;16.5;42.1
78541;SHT31;67835;51.968;5.646;2023-04-24T15:26:25;16.4;42.1
78541;SHT31;67835;51.968;5.646;2023-04-24T15:28:55;16.3;43.7
78541;SHT31;67835;51.968;5.646;2023-04-24T15:31:24;16.2;45.3
78541;SHT31;67835;51.968;5.646;2023-04-24T15:33:54;16.2;43.4
78541;SHT31;67835;51.968;5.646;2023-04-24T15:36:23;16.1;45.1
78541;SHT31;67835;51.968;5.646;2023-04-24T15:38:55;16.0;43.3
78541;SHT31;67835;51.968;5.646;2023-04-24T15:41:25;15.9;44.0
78541;SHT31;67835;51.968;5.646;2023-04-24T15:43:54;15.9;42.6
78541;SHT31;67835;51.968;5.646;2023-04-24T15:46:24;15.8;43.6
78541;SHT31;67835;51.968;5.646;2023-04-24T15:48:53;15.8;43.9
78541;SHT31;67835;51.968;5.646;2023-04-24T15:51:25;15.8;46.0
78541;SHT31;67835;51.968;5.646;2023-04-24T15:53:55;15.9;45.7
78541;SHT31;67835;51.968;5.646;2023-04-24T15:56:24;16.0;44.5
78541;SHT31;67835;51.968;5.646;2023-04-24T15:58:54;16.0;44.8
78541;SHT31;67835;51.968;5.646;2023-04-24T16:01:23;16.0;45.7
78541;SHT31;67835;51.968;5.646;2023-04-24T16:03:53;16.0;45.6
78541;SHT31;67835;51.968;5.646;2023-04-24T16:06:23;16.0;46.1
78541;SHT31;67835;51.968;5.646;2023-04-24T16:08:54;15.9;46.5
78541;SHT31;67835;51.968;5.646;2023-04-24T16:11:23;15.9;45.6
78541;SHT31;67835;51.968;5.646;2023-04-24T16:13:53;15.8;46.2
78541;SHT31;67835;51.968;5.646;2023-04-24T16:16:22;15.7;43.9
78541;SHT31;67835;51.968;5.646;2023-04-24T16:18:52;15.6;43.4
78541;SHT31;67835;51.968;5.646;2023-04-24T16:21:23;15.5;44.0
78541;SHT31;67835;51.968;5.646;2023-04-24T16:23:53;15.4;44.3
78541;SHT31;67835;51.968;5.646;2023-04-24T16:26:24;15.4;44.3
78541;SHT31;67835;51.968;5.646;2023-04-24T16:28:54;15.4;44.3
78541;SHT31;67835;51.968;5.646;2023-04-24T16:31:24;15.4;45.5
78541;SHT31;67835;51.968;5.646;2023-04-24T16:33:53;15.5;45.6
78541;SHT31;67835;51.968;5.646;2023-04-24T16:36:23;15.5;45.4
78541;SHT31;67835;51.968;5.646;2023-04-24T16:38:53;15.6;44.0
78541;SHT31;67835;51.968;5.646;2023-04-24T16:41:23;15.6;43.8
78541;SHT31;67835;51.968;5.646;2023-04-24T16:43:53;15.5;44.0
78541;SHT31;67835;51.968;5.646;2023-04-24T16:46:23;15.4;44.7
78541;SHT31;67835;51.968;5.646;2023-04-24T16:48:53;15.3;44.6
78541;SHT31;67835;51.968;5.646;2023-04-24T16:51:24;15.3;45.1
78541;SHT31;67835;51.968;5.646;2023-04-24T16:53:55;15.2;45.0
78541;SHT31;67835;51.968;5.646;2023-04-24T16:56:25;15.1;45.1
78541;SHT31;67835;51.968;5.646;2023-04-24T16:58:56;15.0;45.6
78541;SHT31;67835;51.968;5.646;2023-04-24T17:01:26;14.9;44.6
78541;SHT31;67835;51.968;5.646;2023-04-24T17:03:56;14.9;45.7
78541;SHT31;67835;51.968;5.646;2023-04-24T17:06:27;14.8;45.7
78541;SHT31;67835;51.968;5.646;2023-04-24T17:08:58;14.7;45.3
78541;SHT31;67835;51.968;5.646;2023-04-24T17:11:28;14.6;45.3
78541;SHT31;67835;51.968;5.646;2023-04-24T17:13:58;14.6;45.1